Time;durP1;ratioP1;P1;durP2;ratioP2;P2;SDS_P1;SDS_P2;PMS_P1;PMS_P2;Temp;Humidity;BMP_temperature;BMP_pressure;BME280_temperature;BME280_humidity;BME280_pressure;Samples;Min_cycle;Max_cycle;Signal;HPM_P1;HPM_P2
2023/09/04 00:00:56;;;;;;;0.40;0.20;;;;;;;15.94;100.00;101319.25;5018888;28;20781;-52
2023/09/04 00:03:25;;;;;;;0.40;0.20;;;;;;;15.89;100.00;101314.94;5021596;28;20458;-52
2023/09/04 00:05:52;;;;;;;0.40;0.20;;;;;;;15.79;100.00;101318.88;5017137;28;20889;-52
2023/09/04 00:08:18;;;;;;;0.40;0.20;;;;;;;15.76;100.00;101324.31;5024742;28;20490;-52
2023/09/04 00:10:45;;;;;;;0.40;0.20;;;;;;;15.65;100.00;101328.25;5027059;28;20563;-52
2023/09/04 00:13:12;;;;;;;0.40;0.20;;;;;;;15.70;100.00;101325.41;5012698;28;20457;-52
2023/09/04 00:15:39;;;;;;;0.40;0.20;;;;;;;15.63;100.00;101329.25;5025355;28;20972;-52
2023/09/04 00:18:07;;;;;;;0.40;0.20;;;;;;;15.60;100.00;101324.84;5012583;28;21035;-52
2023/09/04 00:20:34;;;;;;;0.40;0.20;;;;;;;15.67;100.00;101331.78;5025673;28;20482;-52
2023/09/04 00:23:00;;;;;;;0.40;0.20;;;;;;;15.59;100.00;101336.50;5012700;28;20448;-51
2023/09/04 00:25:27;;;;;;;0.40;0.20;;;;;;;15.64;100.00;101337.22;5025820;28;20498;-52
2023/09/04 00:27:55;;;;;;;0.40;0.20;;;;;;;15.64;100.00;101336.34;5012477;28;20547;-52
2023/09/04 00:30:22;;;;;;;0.40;0.20;;;;;;;15.55;100.00;101329.44;5024602;28;20877;-52
2023/09/04 00:32:48;;;;;;;0.40;0.20;;;;;;;15.60;100.00;101330.19;5012759;28;20474;-52
2023/09/04 00:35:15;;;;;;;0.40;0.20;;;;;;;15.44;100.00;101325.34;5026579;28;20983;-52
2023/09/04 00:37:41;;;;;;;0.40;0.20;;;;;;;15.00;100.00;101331.19;5027199;28;20449;-52
2023/09/04 00:40:08;;;;;;;0.40;0.30;;;;;;;15.36;100.00;101331.84;5031263;28;20529;-52
2023/09/04 00:42:35;;;;;;;0.40;0.20;;;;;;;15.30;100.00;101325.78;5019225;28;20481;-52
2023/09/04 00:45:02;;;;;;;0.40;0.20;;;;;;;15.28;100.00;101322.28;5018080;28;20448;-52
2023/09/04 00:47:29;;;;;;;0.40;0.20;;;;;;;15.34;100.00;101320.28;5019595;28;21007;-52
2023/09/04 00:49:57;;;;;;;0.40;0.20;;;;;;;15.27;100.00;101317.88;5022608;28;20446;-52
2023/09/04 00:52:25;;;;;;;0.40;0.20;;;;;;;15.27;100.00;101317.88;5022683;28;20491;-52
2023/09/04 00:54:52;;;;;;;0.40;0.20;;;;;;;15.15;100.00;101319.13;5022943;28;20487;-52
2023/09/04 00:57:19;;;;;;;0.40;0.20;;;;;;;15.22;100.00;101320.69;5027015;28;20985;-52
2023/09/04 00:59:45;;;;;;;0.40;0.20;;;;;;;15.18;100.00;101318.13;5028624;28;20504;-52
2023/09/04 01:02:14;;;;;;;0.40;0.20;;;;;;;15.08;100.00;101318.44;5029044;28;20530;-51
2023/09/04 01:04:40;;;;;;;0.40;0.20;;;;;;;15.08;100.00;101317.56;5015971;28;20460;-52
2023/09/04 01:07:07;;;;;;;0.40;0.20;;;;;;;15.04;100.00;101319.44;5029038;28;20479;-52
2023/09/04 01:09:35;;;;;;;0.40;0.20;;;;;;;15.10;100.00;101326.44;5029383;28;20880;-52
2023/09/04 01:12:12;;;;;;;0.40;0.20;;;;;;;15.06;100.00;101325.63;5020600;28;20510;-52
2023/09/04 01:14:44;;;;;;;0.40;0.20;;;;;;;15.13;100.00;101328.13;5025628;28;20454;-52
2023/09/04 01:17:12;;;;;;;0.40;0.20;;;;;;;15.05;100.00;101320.31;5018230;28;20448;-52
2023/09/04 01:19:39;;;;;;;0.40;0.20;;;;;;;14.85;100.00;101328.09;5026697;28;20471;-52
2023/09/04 01:22:06;;;;;;;0.40;0.20;;;;;;;15.10;100.00;101315.72;5017116;28;20452;-52
2023/09/04 01:24:34;;;;;;;0.40;0.20;;;;;;;15.07;100.00;101313.97;5027150;28;20498;-52
2023/09/04 01:27:19;;;;;;;0.40;0.20;;;;;;;14.95;100.00;101310.81;5016904;28;20551;-52
2023/09/04 01:30:03;;;;;;;0.40;0.20;;;;;;;14.84;100.00;101310.25;5028494;28;20477;-51
2023/09/04 01:32:40;;;;;;;0.40;0.20;;;;;;;14.87;100.00;101311.03;5015470;28;20466;-51
2023/09/04 01:35:10;;;;;;;0.40;0.20;;;;;;;14.65;100.00;101310.78;5037691;28;20486;-52
2023/09/04 01:37:38;;;;;;;0.40;0.20;;;;;;;14.72;100.00;101307.03;5031069;28;20552;-52
2023/09/04 01:40:07;;;;;;;0.40;0.20;;;;;;;14.80;100.00;101306.78;5033863;28;20483;-51
2023/09/04 01:42:36;;;;;;;0.40;0.20;;;;;;;14.88;100.00;101303.88;5022511;28;20454;-52
2023/09/04 01:45:03;;;;;;;0.40;0.20;;;;;;;14.78;100.00;101306.81;5021144;28;20451;-52
2023/09/04 01:47:32;;;;;;;0.40;0.20;;;;;;;14.67;100.00;101306.28;5022177;28;20551;-51
2023/09/04 01:49:59;;;;;;;0.40;0.20;;;;;;;14.55;100.00;101305.78;5022128;28;20478;-52
2023/09/04 01:52:25;;;;;;;0.40;0.20;;;;;;;14.50;100.00;101304.06;5020988;28;20455;-52
2023/09/04 01:54:51;;;;;;;0.40;0.20;;;;;;;14.40;100.00;101307.03;5022296;28;20461;-52
2023/09/04 01:57:18;;;;;;;0.40;0.20;;;;;;;14.40;100.00;101305.25;5025955;28;20447;-52
2023/09/04 01:59:44;;;;;;;0.40;0.20;;;;;;;14.26;100.00;101294.06;5025888;28;20476;-51
2023/09/04 02:02:11;;;;;;;0.40;0.20;;;;;;;14.33;100.00;101300.97;5028395;28;20451;-52
2023/09/04 02:04:37;;;;;;;0.40;0.20;;;;;;;14.26;100.00;101293.19;5014983;28;20453;-52
2023/09/04 02:07:04;;;;;;;0.40;0.20;;;;;;;14.47;100.00;101285.44;5027788;28;21036;-52
2023/09/04 02:09:30;;;;;;;0.40;0.20;;;;;;;14.37;100.00;101291.94;5027894;28;20458;-52
2023/09/04 02:11:57;;;;;;;0.40;0.20;;;;;;;14.37;100.00;101288.38;5044624;22;20535;-49
2023/09/04 02:14:24;;;;;;;0.40;0.20;;;;;;;14.30;100.00;101286.81;5034235;28;20457;-48
2023/09/04 02:16:50;;;;;;;0.40;0.20;;;;;;;14.21;100.00;101285.25;5034326;28;20483;-48
2023/09/04 02:19:17;;;;;;;0.40;0.20;;;;;;;14.26;100.00;101282.47;5034173;28;20900;-49
2023/09/04 02:21:44;;;;;;;0.40;0.20;;;;;;;14.22;100.00;101282.53;5020939;28;20660;-48
2023/09/04 02:24:10;;;;;;;0.40;0.20;;;;;;;14.26;100.00;101285.16;5025882;28;20452;-48
2023/09/04 02:26:37;;;;;;;0.40;0.20;;;;;;;14.15;100.00;101278.28;5027246;28;20539;-49
2023/09/04 02:29:03;;;;;;;0.40;0.20;;;;;;;14.01;100.00;101277.78;5022987;28;20956;-49
2023/09/04 02:31:30;;;;;;;0.40;0.20;;;;;;;14.15;100.00;101283.66;5020624;28;20571;-49
2023/09/04 02:33:57;;;;;;;0.40;0.20;;;;;;;14.15;100.00;101280.09;5025583;28;20511;-48
2023/09/04 02:36:23;;;;;;;0.40;0.20;;;;;;;14.14;100.00;101284.56;5016165;28;20485;-48
2023/09/04 02:38:50;;;;;;;0.53;0.20;;;;;;;14.04;100.00;101284.84;5025462;28;20836;-49
2023/09/04 02:41:16;;;;;;;0.40;0.20;;;;;;;13.98;100.00;101277.88;5026878;28;20480;-48
2023/09/04 02:43:43;;;;;;;0.40;0.20;;;;;;;14.02;100.00;101281.34;5023303;28;20888;-48
2023/09/04 02:46:09;;;;;;;0.40;0.20;;;;;;;13.97;100.00;101277.91;5020333;28;20953;-49
2023/09/04 02:48:36;;;;;;;0.40;0.20;;;;;;;14.08;100.00;101278.50;5025103;28;20463;-48
2023/09/04 02:51:02;;;;;;;0.40;0.20;;;;;;;14.18;100.00;101277.34;5027186;28;20467;-48
2023/09/04 02:53:29;;;;;;;0.40;0.20;;;;;;;14.25;100.00;101276.22;5022932;28;20820;-49
2023/09/04 02:55:55;;;;;;;0.40;0.20;;;;;;;14.13;100.00;101276.59;5020017;28;20488;-48
2023/09/04 02:58:22;;;;;;;0.40;0.20;;;;;;;14.04;100.00;101277.72;5019533;28;20888;-48
2023/09/04 03:00:49;;;;;;;0.40;0.20;;;;;;;14.15;100.00;101278.28;5027065;28;20507;-48
2023/09/04 03:03:19;;;;;;;0.40;0.20;;;;;;;14.23;100.00;101267.38;5023058;28;20447;-48
2023/09/04 03:05:46;;;;;;;0.40;0.20;;;;;;;14.03;100.00;101272.41;5020283;28;20517;-48
2023/09/04 03:08:13;;;;;;;0.40;0.20;;;;;;;14.11;100.00;101260.56;5023133;28;20499;-49
2023/09/04 03:10:40;;;;;;;0.40;0.20;;;;;;;14.20;100.00;101270.13;5026168;28;20487;-48
2023/09/04 03:13:06;;;;;;;0.40;0.20;;;;;;;14.14;100.00;101271.19;5024231;28;20933;-48
2023/09/04 03:15:32;;;;;;;0.40;0.20;;;;;;;14.00;100.00;101272.50;5019925;28;20493;-48
2023/09/04 03:17:59;;;;;;;0.40;0.20;;;;;;;14.18;100.00;101270.19;5022801;28;20483;-49
2023/09/04 03:20:25;;;;;;;0.40;0.20;;;;;;;14.18;100.00;101267.50;5026492;28;20472;-48
2023/09/04 03:22:52;;;;;;;0.40;0.20;;;;;;;14.01;100.00;101263.56;5024202;28;20529;-48
2023/09/04 03:25:18;;;;;;;0.40;0.20;;;;;;;13.98;100.00;101271.63;5020044;28;20440;-48
2023/09/04 03:27:45;;;;;;;0.40;0.20;;;;;;;14.02;100.00;101273.31;5022465;28;20552;-48
2023/09/04 03:30:12;;;;;;;0.40;0.20;;;;;;;14.05;100.00;101274.13;5026344;28;21056;-48
2023/09/04 03:32:38;;;;;;;0.40;0.20;;;;;;;13.98;100.00;101268.97;5023944;28;20517;-49
2023/09/04 03:35:06;;;;;;;0.40;0.20;;;;;;;13.95;100.00;101277.94;5015981;28;20448;-48
2023/09/04 03:37:37;;;;;;;0.40;0.20;;;;;;;13.76;100.00;101279.34;5024208;28;21004;-48
2023/09/04 03:40:24;;;;;;;0.40;0.20;;;;;;;13.68;100.00;101279.53;5019416;28;20535;-48
2023/09/04 03:42:51;;;;;;;0.40;0.20;;;;;;;13.68;100.00;101278.66;5019280;28;20448;-50
2023/09/04 03:45:18;;;;;;;0.40;0.20;;;;;;;13.90;100.00;101279.88;5024732;28;20456;-48
2023/09/04 03:47:46;;;;;;;0.40;0.20;;;;;;;13.70;100.00;101285.72;5025825;28;20452;-48
2023/09/04 03:50:13;;;;;;;0.40;0.20;;;;;;;13.84;100.00;101277.34;5021096;28;20478;-48
2023/09/04 03:52:40;;;;;;;0.40;0.20;;;;;;;13.67;100.00;101283.13;5019537;28;20448;-48
2023/09/04 03:55:08;;;;;;;0.40;0.20;;;;;;;13.60;100.00;101289.56;5023934;28;20452;-48
2023/09/04 03:57:36;;;;;;;0.40;0.20;;;;;;;13.50;100.00;101285.34;5020692;28;20503;-49
2023/09/04 04:00:16;;;;;;;0.40;0.20;;;;;;;13.57;100.00;101278.94;5022333;28;20454;-49
2023/09/04 04:02:44;;;;;;;0.40;0.30;;;;;;;13.72;100.00;101286.59;5018707;28;20459;-49
2023/09/04 04:05:12;;;;;;;0.40;0.20;;;;;;;13.72;100.00;101283.03;5021077;28;20945;-49
2023/09/04 04:07:39;;;;;;;0.40;0.20;;;;;;;13.64;100.00;101285.88;5026053;28;20535;-49
2023/09/04 04:10:06;;;;;;;0.40;0.20;;;;;;;13.75;100.00;101278.47;5023982;28;20550;-49
2023/09/04 04:12:33;;;;;;;0.40;0.20;;;;;;;13.68;100.00;101278.66;5018912;28;20972;-49
2023/09/04 04:15:06;;;;;;;0.40;0.20;;;;;;;13.80;100.00;101276.56;5020185;28;20448;-49
2023/09/04 04:17:33;;;;;;;0.40;0.20;;;;;;;13.68;100.00;101271.53;5025730;28;20527;-48
2023/09/04 04:20:00;;;;;;;0.40;0.20;;;;;;;13.69;100.00;101275.06;5025592;28;20448;-48
2023/09/04 04:22:26;;;;;;;0.50;0.40;;;;;;;13.70;100.00;101276.81;5024901;28;20452;-48
2023/09/04 04:24:53;;;;;;;0.40;0.20;;;;;;;13.70;100.00;101277.69;5025391;28;20457;-48
2023/09/04 04:27:20;;;;;;;0.40;0.20;;;;;;;13.70;100.00;101277.69;5019116;28;20781;-48
2023/09/04 04:29:52;;;;;;;0.40;0.20;;;;;;;13.78;100.00;101269.50;5018439;28;20462;-49
2023/09/04 04:32:18;;;;;;;0.40;0.20;;;;;;;13.70;100.00;101271.47;5024477;28;20480;-50
2023/09/04 04:34:45;;;;;;;0.50;0.40;;;;;;;13.61;100.00;101268.13;5020878;28;20539;-49
2023/09/04 04:37:12;;;;;;;0.40;0.20;;;;;;;13.76;100.00;101274.88;5020462;28;20487;-49
2023/09/04 04:39:38;;;;;;;0.40;0.20;;;;;;;13.75;100.00;101267.78;5018699;28;21276;-48
2023/09/04 04:42:04;;;;;;;0.40;0.20;;;;;;;13.80;100.00;101279.22;5023173;28;20512;-49
2023/09/04 04:44:31;;;;;;;0.40;0.20;;;;;;;13.79;100.00;101282.81;5025365;28;20456;-49
2023/09/04 04:46:57;;;;;;;0.40;0.20;;;;;;;13.72;100.00;101273.22;5020836;28;20478;-49
2023/09/04 04:49:24;;;;;;;0.40;0.20;;;;;;;13.59;100.00;101275.31;5018647;28;20455;-49
2023/09/04 04:51:51;;;;;;;0.40;0.20;;;;;;;13.57;100.00;101282.50;5023205;28;20479;-49
2023/09/04 04:54:19;;;;;;;0.40;0.20;;;;;;;13.69;100.00;101280.41;5025283;28;20921;-49
2023/09/04 04:56:48;;;;;;;0.40;0.20;;;;;;;13.53;100.00;101282.59;5019206;28;20514;-49
2023/09/04 04:59:15;;;;;;;0.40;0.20;;;;;;;13.60;100.00;101282.41;5014662;28;20532;-49
2023/09/04 05:01:43;;;;;;;0.40;0.20;;;;;;;13.60;100.00;101282.41;5020850;28;20526;-49
2023/09/04 05:04:10;;;;;;;0.40;0.20;;;;;;;13.73;100.00;101290.13;5025149;28;20459;-48
2023/09/04 05:06:36;;;;;;;0.40;0.20;;;;;;;13.57;100.00;101286.97;5021825;28;20482;-49
2023/09/04 05:09:04;;;;;;;0.40;0.20;;;;;;;13.50;100.00;101293.38;5017989;28;20452;-49
2023/09/04 05:11:30;;;;;;;0.40;0.20;;;;;;;13.73;100.00;101301.69;5019877;28;20484;-48
2023/09/04 05:14:00;;;;;;;0.40;0.20;;;;;;;13.95;100.00;101296.66;5025083;28;20452;-48
2023/09/04 05:16:27;;;;;;;0.40;0.20;;;;;;;13.91;100.00;101295.00;5022527;28;21083;-49
2023/09/04 05:18:54;;;;;;;0.40;0.20;;;;;;;14.21;100.00;101298.63;5018394;28;21006;-48
2023/09/04 05:21:21;;;;;;;0.40;0.20;;;;;;;14.80;100.00;101293.41;5020458;28;20479;-49
2023/09/04 05:23:50;;;;;;;0.40;0.20;;;;;;;14.88;100.00;101295.84;5023769;28;20448;-49
2023/09/04 05:26:16;;;;;;;0.97;0.97;;;;;;;15.04;99.91;101294.47;5022166;28;20451;-51
2023/09/04 05:28:43;;;;;;;0.40;0.20;;;;;;;15.35;99.21;101297.94;5018101;28;20821;-48
2023/09/04 05:31:09;;;;;;;0.40;0.20;;;;;;;15.29;99.13;101292.78;5019761;28;20555;-49
2023/09/04 05:33:36;;;;;;;0.40;0.20;;;;;;;15.57;98.41;101283.84;5025370;28;20480;-49
2023/09/04 05:36:02;;;;;;;0.40;0.20;;;;;;;15.51;98.73;101282.25;5015142;28;20444;-49
2023/09/04 05:38:29;;;;;;;0.40;0.20;;;;;;;15.79;98.09;101284.03;5028232;28;20457;-51
2023/09/04 05:40:57;;;;;;;0.40;0.37;;;;;;;16.15;98.40;101280.03;5027498;28;20518;-49
2023/09/04 05:43:24;;;;;;;0.40;0.20;;;;;;;16.05;97.52;101285.81;5021661;28;20448;-49
2023/09/04 05:45:51;;;;;;;0.40;0.20;;;;;;;16.03;98.22;101282.28;5022246;28;20463;-49
2023/09/04 05:48:17;;;;;;;0.40;0.20;;;;;;;16.00;98.16;101292.19;5028229;28;20448;-49
2023/09/04 05:50:43;;;;;;;0.40;0.20;;;;;;;16.05;98.51;101283.13;5027420;28;20471;-49
2023/09/04 05:53:14;;;;;;;0.40;0.20;;;;;;;15.82;99.83;101275.88;5025503;28;20456;-49
2023/09/04 05:55:42;;;;;;;0.40;0.20;;;;;;;15.83;100.00;101278.50;5027293;28;20627;-49
2023/09/04 05:58:11;;;;;;;0.40;0.20;;;;;;;15.71;100.00;101278.91;5014503;28;20997;-49
2023/09/04 06:00:38;;;;;;;0.40;0.20;;;;;;;15.64;100.00;101283.63;5027857;28;20474;-48
2023/09/04 06:03:05;;;;;;;0.40;0.20;;;;;;;15.60;100.00;101279.28;5022246;28;20466;-48
2023/09/04 06:05:31;;;;;;;0.40;0.20;;;;;;;15.73;100.00;101282.41;5020837;28;20522;-49
2023/09/04 06:07:58;;;;;;;0.40;0.20;;;;;;;15.75;100.00;101283.25;5026709;28;20426;-48
2023/09/04 06:10:24;;;;;;;0.40;0.20;;;;;;;15.83;100.00;101283.00;5027722;28;20550;-48
2023/09/04 06:12:52;;;;;;;0.40;0.20;;;;;;;15.85;100.00;101276.63;5022431;28;20477;-48
2023/09/04 06:15:19;;;;;;;0.40;0.20;;;;;;;16.08;100.00;101270.47;5019849;28;20424;-49
2023/09/04 06:17:45;;;;;;;0.40;0.20;;;;;;;16.15;100.00;101273.81;5026300;28;21079;-49
2023/09/04 06:20:12;;;;;;;0.40;0.20;;;;;;;16.37;100.00;101271.25;5027723;28;20502;-50
2023/09/04 06:22:39;;;;;;;0.40;0.20;;;;;;;16.47;100.00;101273.53;5022854;28;20452;-49
2023/09/04 06:25:06;;;;;;;0.40;0.20;;;;;;;16.82;100.00;101271.34;5020627;28;20456;-51
2023/09/04 06:27:33;;;;;;;0.40;0.20;;;;;;;17.06;100.00;101267.69;5025298;28;20448;-49
2023/09/04 06:29:59;;;;;;;0.40;0.20;;;;;;;17.48;99.18;101266.88;5027463;28;20451;-49
2023/09/04 06:32:25;;;;;;;0.40;0.20;;;;;;;17.46;98.73;101260.72;5022848;28;20539;-49
2023/09/04 06:34:52;;;;;;;0.40;0.20;;;;;;;17.67;98.28;101262.47;5018248;28;20972;-49
2023/09/04 06:37:18;;;;;;;0.40;0.20;;;;;;;17.62;98.25;101263.63;5023376;28;20491;-49
2023/09/04 06:39:45;;;;;;;0.40;0.20;;;;;;;17.85;98.01;101254.63;5020262;28;20449;-49
2023/09/04 06:42:11;;;;;;;0.40;0.20;;;;;;;17.95;97.63;101264.03;5024057;28;20424;-49
2023/09/04 06:44:38;;;;;;;0.40;0.20;;;;;;;17.85;97.49;101265.38;5026997;28;20948;-49
2023/09/04 06:47:04;;;;;;;0.40;0.20;;;;;;;17.82;97.25;101261.00;5022714;28;20450;-49
2023/09/04 06:49:31;;;;;;;0.40;0.20;;;;;;;17.98;96.59;101259.41;5020297;28;20468;-49
2023/09/04 06:51:57;;;;;;;0.40;0.20;;;;;;;18.02;96.01;101266.38;5024058;28;20466;-51
2023/09/04 06:54:24;;;;;;;0.40;0.20;;;;;;;17.95;97.03;101262.19;5026725;28;20496;-49
2023/09/04 06:56:50;;;;;;;0.40;0.20;;;;;;;18.02;96.40;101252.94;5021405;28;20947;-49
2023/09/04 06:59:18;;;;;;;0.40;0.20;;;;;;;18.15;96.51;101258.66;5016725;28;20960;-49
2023/09/04 07:01:45;;;;;;;0.40;0.20;;;;;;;18.31;96.50;101258.84;5012958;28;20444;-49
2023/09/04 07:04:12;;;;;;;0.40;0.20;;;;;;;18.28;95.76;101258.97;5023997;28;20455;-49
2023/09/04 07:06:38;;;;;;;0.40;0.20;;;;;;;18.34;95.73;101259.56;5024180;28;20440;-49
2023/09/04 07:09:05;;;;;;;0.40;0.20;;;;;;;18.43;95.55;101255.59;5019785;28;20450;-49
2023/09/04 07:11:31;;;;;;;0.40;0.20;;;;;;;18.49;95.32;101249.03;5022406;28;20564;-49
2023/09/04 07:13:58;;;;;;;0.40;0.20;;;;;;;18.72;94.83;101248.88;5026400;28;20552;-49
2023/09/04 07:16:25;;;;;;;0.40;0.20;;;;;;;18.89;94.60;101251.66;5023854;28;20436;-49
2023/09/04 07:19:07;;;;;;;0.40;0.30;;;;;;;18.94;93.72;101251.44;5019875;28;20444;-51
2023/09/04 07:21:33;;;;;;;0.50;0.40;;;;;;;18.89;93.57;101253.47;5019891;28;20469;-48
2023/09/04 07:24:00;;;;;;;0.40;0.20;;;;;;;18.95;93.43;101255.88;5026371;28;20467;-49
2023/09/04 07:26:26;;;;;;;0.40;0.20;;;;;;;19.01;93.46;101252.88;5026159;28;20419;-49
2023/09/04 07:28:53;;;;;;;0.40;0.20;;;;;;;19.14;93.24;101261.25;5019947;28;20454;-49
2023/09/04 07:31:20;;;;;;;0.40;0.20;;;;;;;19.09;92.57;101252.53;5019558;28;20546;-49
2023/09/04 07:33:48;;;;;;;0.40;0.20;;;;;;;19.18;92.69;101260.16;5025606;28;20427;-48
2023/09/04 07:36:15;;;;;;;0.40;0.20;;;;;;;19.15;91.63;101257.63;5013442;28;20459;-49
2023/09/04 07:38:43;;;;;;;0.40;0.20;;;;;;;19.32;91.41;101262.16;5025515;28;20478;-49
2023/09/04 07:41:10;;;;;;;0.40;0.20;;;;;;;19.36;91.07;101253.88;5026066;28;20529;-48
2023/09/04 07:43:36;;;;;;;0.40;0.20;;;;;;;19.58;91.45;101245.59;5020029;28;20994;-49
2023/09/04 07:46:04;;;;;;;0.40;0.20;;;;;;;19.67;90.64;101255.94;5019288;28;20423;-48
2023/09/04 07:48:33;;;;;;;0.50;0.20;;;;;;;19.78;89.59;101248.16;5025233;28;20484;-49
2023/09/04 07:51:01;;;;;;;0.40;0.20;;;;;;;19.97;88.70;101247.19;5026298;28;20476;-49
2023/09/04 07:53:27;;;;;;;0.40;0.20;;;;;;;19.79;90.19;101255.31;5021095;28;20888;-49
2023/09/04 07:55:54;;;;;;;0.40;0.20;;;;;;;20.15;88.51;101254.34;5019031;28;20507;-48
2023/09/04 07:58:21;;;;;;;0.40;0.20;;;;;;;20.07;89.90;101243.94;5025887;28;20515;-49
2023/09/04 08:00:49;;;;;;;0.50;0.20;;;;;;;20.25;89.21;101247.50;5030498;28;20867;-49
2023/09/04 08:03:17;;;;;;;0.40;0.20;;;;;;;20.23;88.60;101244.00;5021369;28;20430;-49
2023/09/04 08:05:44;;;;;;;0.40;0.20;;;;;;;20.29;89.23;101243.69;5018925;28;20427;-49
2023/09/04 08:08:11;;;;;;;0.40;0.20;;;;;;;20.35;88.96;101247.88;5023361;28;20459;-49
2023/09/04 08:10:43;;;;;;;0.40;0.30;;;;;;;20.22;86.97;101252.19;5025941;28;20488;-49
2023/09/04 08:13:11;;;;;;;0.40;0.20;;;;;;;20.28;86.88;101251.84;5020899;28;20418;-51
2023/09/04 08:15:40;;;;;;;0.50;0.20;;;;;;;20.57;87.37;101253.03;5018848;28;20459;-50
2023/09/04 08:18:07;;;;;;;0.40;0.20;;;;;;;20.48;86.32;101251.69;5021731;28;20499;-49
2023/09/04 08:20:35;;;;;;;0.40;0.20;;;;;;;20.41;86.05;101253.84;5025549;28;20855;-49
2023/09/04 08:23:03;;;;;;;0.40;0.20;;;;;;;20.58;86.07;101246.69;5023050;28;20513;-49
2023/09/04 08:25:29;;;;;;;0.40;0.20;;;;;;;20.76;86.08;101253.75;5018697;28;20458;-49
2023/09/04 08:27:56;;;;;;;0.40;0.20;;;;;;;20.69;84.90;101255.03;5021105;28;20424;-49
2023/09/04 08:30:23;;;;;;;0.40;0.20;;;;;;;20.66;84.86;101242.56;5025261;28;20936;-48
2023/09/04 08:32:50;;;;;;;0.50;0.20;;;;;;;20.90;84.38;101245.75;5023575;28;20422;-48
2023/09/04 08:35:18;;;;;;;0.40;0.20;;;;;;;21.14;83.79;101238.09;5013693;28;20537;-50
2023/09/04 08:37:44;;;;;;;0.50;0.20;;;;;;;21.29;82.79;101226.41;5024800;28;20543;-49
2023/09/04 08:40:12;;;;;;;0.40;0.20;;;;;;;21.16;82.17;101229.88;5018362;28;20472;-49
2023/09/04 08:42:39;;;;;;;0.40;0.20;;;;;;;21.25;82.42;101232.97;5019375;28;20459;-49
2023/09/04 08:45:07;;;;;;;0.40;0.20;;;;;;;21.17;82.82;101220.81;5025441;28;20517;-49
2023/09/04 08:47:40;;;;;;;0.40;0.20;;;;;;;21.40;82.51;101227.63;5025126;28;20457;-50
2023/09/04 08:50:07;;;;;;;0.50;0.20;;;;;;;21.36;81.27;101237.72;5019781;28;20482;-50
2023/09/04 08:52:38;;;;;;;0.40;0.20;;;;;;;21.61;81.05;101228.19;5018728;28;20477;-49
2023/09/04 08:55:05;;;;;;;0.40;0.20;;;;;;;21.74;80.62;101226.47;5023539;28;20480;-49
2023/09/04 08:57:33;;;;;;;0.40;0.20;;;;;;;21.57;79.91;101222.94;5021650;28;20488;-50
2023/09/04 09:00:00;;;;;;;0.40;0.20;;;;;;;21.49;77.25;101235.19;5031866;28;20522;-49
2023/09/04 09:02:28;;;;;;;0.50;0.20;;;;;;;21.96;79.46;101232.34;5018486;28;20423;-49
2023/09/04 09:04:56;;;;;;;0.50;0.20;;;;;;;22.04;80.38;101221.91;5022289;28;20895;-49
2023/09/04 09:07:26;;;;;;;0.43;0.20;;;;;;;22.10;78.26;101231.53;5025101;28;20453;-50
2023/09/04 09:09:55;;;;;;;0.43;0.27;;;;;;;21.89;78.22;101236.38;5024974;28;20987;-49
2023/09/04 09:12:21;;;;;;;0.50;0.20;;;;;;;22.14;76.85;101238.50;5022845;28;20988;-50
2023/09/04 09:14:48;;;;;;;0.40;0.20;;;;;;;22.13;77.24;101239.47;5025141;28;20491;-50
2023/09/04 09:17:14;;;;;;;0.40;0.20;;;;;;;21.92;76.92;101236.19;5028953;28;20484;-50
2023/09/04 09:19:43;;;;;;;0.40;0.20;;;;;;;22.23;76.04;101237.06;5026664;28;20451;-49
2023/09/04 09:22:15;;;;;;;0.50;0.20;;;;;;;22.33;75.93;101244.50;5022099;28;20467;-49
2023/09/04 09:24:51;;;;;;;0.50;0.20;;;;;;;22.21;75.97;101236.31;5023760;28;20617;-49
2023/09/04 09:27:22;;;;;;;0.50;0.20;;;;;;;22.27;76.74;101230.50;5009418;28;20439;-49
2023/09/04 09:29:51;;;;;;;0.40;0.20;;;;;;;22.47;76.90;101233.66;5021634;28;20440;-49
2023/09/04 09:32:19;;;;;;;0.40;0.20;;;;;;;22.72;75.61;101230.28;5027845;28;20434;-49
2023/09/04 09:34:50;;;;;;;0.50;0.50;;;;;;;22.66;75.17;101233.41;5024274;28;20474;-50
2023/09/04 09:37:21;;;;;;;0.50;0.20;;;;;;;22.80;75.47;101228.94;5024371;28;20486;-50
2023/09/04 09:39:47;;;;;;;0.50;0.20;;;;;;;22.88;74.01;101235.63;5021838;28;20418;-50
2023/09/04 09:42:14;;;;;;;0.40;0.20;;;;;;;23.01;70.81;101228.41;5024978;28;20452;-49
2023/09/04 09:44:40;;;;;;;0.50;0.20;;;;;;;22.99;70.27;101230.38;5028597;28;20445;-49
2023/09/04 09:47:11;;;;;;;0.50;0.20;;;;;;;22.76;70.26;101226.44;5024902;28;20426;-49
2023/09/04 09:49:39;;;;;;;1.13;1.07;;;;;;;23.01;71.43;101225.72;5021164;28;20954;-50
2023/09/04 09:52:07;;;;;;;0.50;0.20;;;;;;;23.15;72.97;101229.34;5024004;28;20526;-49
2023/09/04 09:54:36;;;;;;;0.40;0.20;;;;;;;23.41;71.88;101225.78;5027917;28;20511;-49
2023/09/04 09:57:07;;;;;;;0.50;0.30;;;;;;;23.33;71.48;101220.88;5022995;28;20455;-54
2023/09/04 09:59:38;;;;;;;0.50;0.20;;;;;;;23.33;69.68;101230.88;5020249;28;20539;-49
2023/09/04 10:02:06;;;;;;;0.50;0.20;;;;;;;23.21;68.67;101220.84;5021928;28;20474;-49
2023/09/04 10:04:34;;;;;;;0.43;0.20;;;;;;;23.29;68.69;101210.31;5028030;28;20444;-49
2023/09/04 10:07:02;;;;;;;0.40;0.30;;;;;;;23.44;65.82;101213.88;5027665;28;20454;-50
2023/09/04 10:09:36;;;;;;;0.50;0.20;;;;;;;23.38;66.14;101209.72;5014490;28;20868;-52
2023/09/04 10:12:31;;;;;;;0.50;0.20;;;;;;;23.55;66.56;101211.28;5027738;28;20481;-49
2023/09/04 10:15:00;;;;;;;0.50;0.30;;;;;;;23.85;67.58;101208.38;5026142;28;20447;-49
2023/09/04 10:17:36;;;;;;;0.50;0.20;;;;;;;23.75;65.69;101210.84;5020739;28;20502;-50
2023/09/04 10:20:05;;;;;;;0.40;0.20;;;;;;;23.87;66.32;101207.28;5020207;28;20452;-49
2023/09/04 10:22:37;;;;;;;0.50;0.20;;;;;;;23.99;66.44;101204.69;5021412;28;20427;-50
2023/09/04 10:25:20;;;;;;;0.50;0.20;;;;;;;24.21;64.23;101196.75;5021570;28;20452;-49
2023/09/04 10:27:50;;;;;;;0.50;0.30;;;;;;;24.27;63.03;101196.31;5024552;28;20445;-51
2023/09/04 10:30:22;;;;;;;0.50;0.30;;;;;;;24.13;63.29;101189.16;5027380;28;20547;-50
2023/09/04 10:32:49;;;;;;;0.50;0.20;;;;;;;24.12;62.98;101184.69;5014254;28;20787;-50
2023/09/04 10:35:16;;;;;;;0.50;0.20;;;;;;;24.43;63.72;101188.84;5022883;28;20520;-50
2023/09/04 10:37:43;;;;;;;0.50;0.20;;;;;;;24.19;63.04;101185.97;5026710;28;20922;-50
2023/09/04 10:40:13;;;;;;;0.50;0.30;;;;;;;24.23;63.97;101179.34;5020354;28;20465;-50
2023/09/04 10:42:41;;;;;;;0.50;0.23;;;;;;;24.37;63.81;101174.78;5020863;28;20539;-50
2023/09/04 10:45:12;;;;;;;0.50;0.20;;;;;;;24.24;62.51;101180.22;5026748;28;20463;-50
2023/09/04 10:47:45;;;;;;;0.50;0.20;;;;;;;24.22;61.50;101171.31;5027290;28;20450;-50
2023/09/04 10:50:35;;;;;;;0.90;0.90;;;;;;;24.19;61.80;101166.97;5022613;28;20486;-49
2023/09/04 10:53:04;;;;;;;0.50;0.20;;;;;;;24.38;62.71;101165.66;5020436;28;20454;-49
2023/09/04 10:55:32;;;;;;;0.50;0.30;;;;;;;24.46;61.58;101168.69;5020711;28;20456;-50
2023/09/04 10:58:01;;;;;;;0.50;0.20;;;;;;;24.33;59.92;101156.97;5013529;28;20562;-50
2023/09/04 11:00:30;;;;;;;0.50;0.20;;;;;;;24.26;60.76;101151.09;5027075;28;20506;-50
2023/09/04 11:02:58;;;;;;;0.50;0.20;;;;;;;24.68;62.29;101151.69;5026543;28;20898;-50
2023/09/04 11:05:25;;;;;;;0.50;0.20;;;;;;;24.35;59.01;101136.00;5026636;28;20527;-50
2023/09/04 11:07:51;;;;;;;0.50;0.20;;;;;;;24.67;59.46;101139.97;5021310;28;20440;-50
2023/09/04 11:10:34;;;;;;;0.50;0.30;;;;;;;24.59;59.51;101136.06;5020932;28;20494;-50
2023/09/04 11:13:00;;;;;;;0.47;0.20;;;;;;;24.66;59.39;101127.31;5023397;28;20517;-50
2023/09/04 11:15:28;;;;;;;0.50;0.20;;;;;;;24.74;58.25;101130.34;5018584;28;20484;-50
2023/09/04 11:17:55;;;;;;;0.50;0.20;;;;;;;24.91;58.04;101137.25;5022647;28;20484;-50
2023/09/04 11:20:26;;;;;;;0.47;0.20;;;;;;;24.71;58.31;101135.16;5026537;28;20472;-49
2023/09/04 11:22:55;;;;;;;0.50;0.20;;;;;;;24.73;58.95;101133.19;5024711;28;20457;-49
2023/09/04 11:25:22;;;;;;;0.50;0.20;;;;;;;25.08;58.24;101120.56;5019719;28;20454;-50